Airfield :
LOGIN :

Register | Disclaimer

   EN    FR    IT 

 










Legend :    VFR   Marginal VFR   IFR   Intensive IFR   Very Intensive IFR
Visi :
Ceiling :
>= 8 km
>= 3000ft
5 to 8 km
1000 to 3000 ft
1500m to 5 km
500 to 1000 ft
800 to 1500m
200 to 500 ft
< 800m
< 200 ft
Symbols :   Thunderstorms  Fog  Heavy snow  Heavy precipitations  Wind > 20 kt
SIGMETs :     Misc.  Thunderstorms  Icing  Turbulence  Mountain Waves  Volcanic Ashes






- Airport Elevation : 94 ft
- IATA code : QLT


LIRL - Latina Casale (military)

CURRENT METAR :
  • 131055Z 23007KT CAVOK 35/17 Q1016 RMK SKC MON LIB NC VIS MIN 9999 WIND THR12 24005KT WIND THR30 /////KT BLU

EXPIRED METARs :
  • 130955Z 26004KT CAVOK 34/18 Q1016 RMK SKC MON LIB NC VIS MIN 9999 WIND THR12 35003KT WIND THR30 /////KT BLU
  • 130855Z 21004KT CAVOK 32/19 Q1016 RMK SKC MON LIB NC VIS MIN 9999 WIND THR12 24004KT WIND THR30 /////KT BLU

TAF COR TAF LIRL
Valid from the 13 at 12:00 until the 13 at 21:00 UTC


131122Z 1312/1321 24012KT CAVOK
TEMPO 1315/1319 9999 SCT070



MET'MAP, your aeronautical weather chart ! - Copyright ORBIFLY December 2007 - Disclaimer

ORBIFLY MET'MAP TEAM :

Programming & Development : Alexandra Zaïnal
Concept & original design : Baudouin d'Aumeries
Assistance for programming : Marc-Olivier Méhu
Technical & hardware support : Manuel Goepfert

Contact : metmap@orbifly.com




SOURCES & CREDITS :

   NOAA